^^
Saratoga-Weather Station Historical Data
Daily Summary for January 20, 2021 Units:  Metric    English   Both
Daily Weekly Monthly Yearly Custom
  High: Low: Average:
Temperature: 10.9 °C -0.8 °C 5.7 °C
Dew Point: 6.3 °C -1.4 °C 3.1 °C
Humidity: 97% 68% 84%
Wind Speed: 13km/h 0km/h 2.7km/h
Wind Gust: 24.1km/h - -
Wind- - SE
Pressure: 1010.5 hPa 997.0 hPa -
Precipitation: 0.2 mm    
Historical Graphs
 
 
Tabular Data for January 20, 2021
Time Temperature Dew Point Pressure Wind Wind Speed Wind Gust Humidity Rainfall Rate (Hourly) solar
00:01 -0.4 °C -1 °C 1010.5 hPa Calm     96% 0.0 mm 0 W/m2
00:06 -0.4 °C -1 °C 1010.5 hPa East 1.4 km/h 3.2 km/h 96% 0.0 mm 0 W/m2
00:11 -0.4 °C -1 °C 1010.2 hPa East 3.2 km/h 3.2 km/h 96% 0.0 mm 0 W/m2
00:16 -0.4 °C -1 °C 1010.2 hPa Calm   3.2 km/h 96% 0.0 mm 0 W/m2
00:21 -0.4 °C -1 °C 1010.2 hPa Calm   1.6 km/h 96% 0.0 mm 0 W/m2
00:26 -0.4 °C -1 °C 1010.2 hPa Calm   1.6 km/h 96% 0.0 mm 0 W/m2
00:31 -0.4 °C -1 °C 1010.2 hPa Calm   3.2 km/h 96% 0.0 mm 0 W/m2
00:36 -0.4 °C -1 °C 1010.2 hPa SE 4.7 km/h 4.8 km/h 96% 0.0 mm 0 W/m2
00:41 -0.4 °C -0.8 °C 1010.2 hPa SE 1.4 km/h 3.2 km/h 97% 0.0 mm 0 W/m2
00:46 -0.4 °C -0.8 °C 1010.2 hPa ESE 3.2 km/h 4.8 km/h 97% 0.0 mm 0 W/m2
00:51 -0.4 °C -1 °C 1010.2 hPa Calm     96% 0.0 mm 0 W/m2
00:56 -0.4 °C -1 °C 1009.8 hPa Calm     96% 0.0 mm 0 W/m2
01:01 -0.5 °C -1.1 °C 1009.8 hPa Calm     96% 0.0 mm 0 W/m2
01:06 -0.6 °C -1.2 °C 1009.8 hPa Calm     96% 0.0 mm 0 W/m2
01:11 -0.6 °C -1.2 °C 1009.8 hPa Calm   3.2 km/h 96% 0.0 mm 0 W/m2
01:16 -0.6 °C -1.2 °C 1009.8 hPa Calm   1.6 km/h 96% 0.0 mm 0 W/m2
01:21 -0.7 °C -1.3 °C 1009.8 hPa Calm   3.2 km/h 96% 0.0 mm 0 W/m2
01:26 -0.7 °C -1.3 °C 1009.5 hPa Calm   1.6 km/h 96% 0.0 mm 0 W/m2
01:31 -0.8 °C -1.4 °C 1009.5 hPa Calm   3.2 km/h 96% 0.0 mm 0 W/m2
01:36 -0.7 °C -1.1 °C 1009.5 hPa Calm   3.2 km/h 97% 0.0 mm 0 W/m2
01:41 -0.7 °C -1.3 °C 1009.1 hPa ESE 1.4 km/h 3.2 km/h 96% 0.0 mm 0 W/m2
01:46 -0.6 °C -1 °C 1009.1 hPa Calm   3.2 km/h 97% 0.0 mm 0 W/m2
01:51 -0.6 °C -1 °C 1009.1 hPa Calm   3.2 km/h 97% 0.0 mm 0 W/m2
01:56 -0.6 °C -1 °C 1009.1 hPa Calm   1.6 km/h 97% 0.0 mm 0 W/m2
02:01 -0.5 °C -0.9 °C 1009.1 hPa Calm   1.6 km/h 97% 0.0 mm 0 W/m2
02:07 -0.5 °C -0.9 °C 1009.1 hPa ESE 1.4 km/h 1.6 km/h 97% 0.0 mm 0 W/m2
02:12 -0.4 °C -0.8 °C 1009.1 hPa ESE 3.2 km/h 4.8 km/h 97% 0.0 mm 0 W/m2
02:17 -0.4 °C -0.8 °C 1009.1 hPa Calm   3.2 km/h 97% 0.0 mm 0 W/m2
02:22 -0.4 °C -0.8 °C 1009.1 hPa Calm   4.8 km/h 97% 0.0 mm 0 W/m2
02:32 -0.5 °C -0.9 °C 1009.1 hPa Calm   1.6 km/h 97% 0.0 mm 0 W/m2
02:37 -0.5 °C -0.9 °C 1009.1 hPa Calm   1.6 km/h 97% 0.0 mm 0 W/m2
02:42 -0.5 °C -0.9 °C 1009.1 hPa Calm     97% 0.0 mm 0 W/m2
02:47 -0.5 °C -0.9 °C 1009.1 hPa Calm     97% 0.0 mm 0 W/m2
02:52 -0.5 °C -0.9 °C 1008.8 hPa Calm   1.6 km/h 97% 0.0 mm 0 W/m2
02:57 -0.6 °C -1 °C 1008.8 hPa Calm   3.2 km/h 97% 0.0 mm 0 W/m2
03:07 -0.6 °C -1 °C 1008.8 hPa ESE 1.4 km/h 3.2 km/h 97% 0.0 mm 0 W/m2
03:12 -0.5 °C -0.9 °C 1008.8 hPa Calm   3.2 km/h 97% 0.0 mm 0 W/m2
03:17 -0.4 °C -0.8 °C 1008.8 hPa Calm     97% 0.0 mm 0 W/m2
03:22 -0.4 °C -0.8 °C 1008.8 hPa Calm     97% 0.0 mm 0 W/m2
03:27 -0.3 °C -0.7 °C 1008.5 hPa Calm     97% 0.0 mm 0 W/m2
03:42 -0.4 °C -0.8 °C 1008.5 hPa Calm   3.2 km/h 97% 0.0 mm 0 W/m2
03:47 -0.3 °C -0.7 °C 1008.5 hPa Calm   3.2 km/h 97% 0.0 mm 0 W/m2
03:52 -0.3 °C -0.7 °C 1008.5 hPa ESE 1.4 km/h 3.2 km/h 97% 0.0 mm 0 W/m2
03:57 -0.3 °C -0.7 °C 1008.5 hPa ESE 1.4 km/h 3.2 km/h 97% 0.0 mm 0 W/m2
04:02 -0.3 °C -0.7 °C 1008.5 hPa ESE 1.4 km/h 3.2 km/h 97% 0.0 mm 0 W/m2
04:07 -0.3 °C -0.7 °C 1008.5 hPa ESE 1.4 km/h 3.2 km/h 97% 0.0 mm 0 W/m2
04:12 -0.2 °C -0.6 °C 1008.1 hPa Calm   3.2 km/h 97% 0.0 mm 0 W/m2
04:17 -0.2 °C -0.6 °C 1008.1 hPa Calm     97% 0.0 mm 0 W/m2
04:22 -0.2 °C -0.6 °C 1008.1 hPa Calm   1.6 km/h 97% 0.0 mm 0 W/m2
04:27 -0.1 °C -0.5 °C 1008.1 hPa Calm     97% 0.0 mm 0 W/m2
04:32 -0.1 °C -0.5 °C 1008.1 hPa Calm   1.6 km/h 97% 0.0 mm 0 W/m2
04:37 -0.1 °C -0.5 °C 1008.1 hPa Calm   1.6 km/h 97% 0.0 mm 0 W/m2
04:42 0 °C -0.4 °C 1008.1 hPa Calm   3.2 km/h 97% 0.0 mm 0 W/m2
04:47 0.1 °C -0.3 °C 1008.1 hPa Calm     97% 0.0 mm 0 W/m2
04:52 0.1 °C -0.3 °C 1007.8 hPa Calm   1.6 km/h 97% 0.0 mm 0 W/m2
04:57 0.1 °C -0.3 °C 1007.8 hPa Calm     97% 0.0 mm 0 W/m2
05:02 0.1 °C -0.3 °C 1007.5 hPa SE 3.2 km/h 3.2 km/h 97% 0.0 mm 0 W/m2
05:07 0.1 °C -0.3 °C 1007.5 hPa Calm   1.6 km/h 97% 0.0 mm 0 W/m2
05:12 0.2 °C -0.2 °C 1007.5 hPa East 4.7 km/h 8 km/h 97% 0.0 mm 0 W/m2
05:17 0.3 °C -0.1 °C 1007.5 hPa ESE 3.2 km/h 4.8 km/h 97% 0.0 mm 0 W/m2
05:22 0.3 °C -0.1 °C 1007.5 hPa ESE 1.4 km/h 8 km/h 97% 0.0 mm 0 W/m2
05:27 0.4 °C 0 °C 1007.5 hPa Calm   1.6 km/h 97% 0.0 mm 0 W/m2
05:32 0.6 °C 0.2 °C 1007.5 hPa NE 3.2 km/h 8 km/h 97% 0.0 mm 0 W/m2
05:37 1.2 °C 0.8 °C 1007.1 hPa ESE 4.7 km/h 4.8 km/h 97% 0.0 mm 0 W/m2
05:42 1.5 °C 1.1 °C 1007.1 hPa ENE 1.4 km/h 8 km/h 97% 0.0 mm 0 W/m2
05:47 1.6 °C 1.2 °C 1007.1 hPa ENE 3.2 km/h 3.2 km/h 97% 0.0 mm 0 W/m2
05:52 1.6 °C 1.2 °C 1007.1 hPa Calm   3.2 km/h 97% 0.0 mm 0 W/m2
05:57 1.6 °C 1 °C 1007.1 hPa SSE 1.4 km/h 3.2 km/h 96% 0.0 mm 0 W/m2
06:02 1.7 °C 1.1 °C 1007.1 hPa Calm   4.8 km/h 96% 0.0 mm 0 W/m2
06:07 1.9 °C 1.2 °C 1006.8 hPa East 4.7 km/h 6.4 km/h 95% 0.0 mm 0 W/m2
06:12 2.2 °C 1.3 °C 1007.1 hPa South 1.4 km/h 6.4 km/h 94% 0.0 mm 0 W/m2
06:17 2.1 °C 1.1 °C 1007.1 hPa Calm   4.8 km/h 93% 0.0 mm 0 W/m2
06:22 2.1 °C 0.9 °C 1006.8 hPa ENE 4.7 km/h 4.8 km/h 92% 0.0 mm 0 W/m2
06:27 2.2 °C 1 °C 1006.8 hPa Calm   3.2 km/h 92% 0.0 mm 0 W/m2
06:32 2.4 °C 1.1 °C 1006.8 hPa Calm   6.4 km/h 91% 0.0 mm 0 W/m2
06:37 2.7 °C 1.1 °C 1006.8 hPa East 4.7 km/h 4.8 km/h 89% 0.0 mm 0 W/m2
06:42 2.8 °C 1.2 °C 1006.8 hPa ESE 3.2 km/h 6.4 km/h 89% 0.0 mm 0 W/m2
06:47 2.7 °C 0.9 °C 1006.8 hPa ESE 3.2 km/h 6.4 km/h 88% 0.0 mm 0 W/m2
06:52 2.6 °C 0.8 °C 1006.8 hPa SE 1.4 km/h 3.2 km/h 88% 0.0 mm 0 W/m2
06:57 2.3 °C 0.7 °C 1006.8 hPa ESE 3.2 km/h 4.8 km/h 89% 0.0 mm 0 W/m2
07:02 2.1 °C 0.5 °C 1006.4 hPa ESE 3.2 km/h 4.8 km/h 89% 0.0 mm 0 W/m2
07:07 2 °C 0.5 °C 1006.4 hPa ESE 3.2 km/h 4.8 km/h 90% 0.0 mm 0 W/m2
07:12 1.9 °C 0.4 °C 1006.4 hPa ESE 1.4 km/h 4.8 km/h 90% 0.0 mm 0 W/m2
07:17 1.8 °C 0.3 °C 1006.4 hPa SE 1.4 km/h 3.2 km/h 90% 0.0 mm 0 W/m2
07:22 1.8 °C 0.5 °C 1006.4 hPa SE 3.2 km/h 3.2 km/h 91% 0.0 mm 0 W/m2
07:27 1.7 °C 0.4 °C 1006.4 hPa SSE 1.4 km/h 3.2 km/h 91% 0.0 mm 0 W/m2
07:32 1.7 °C 0.4 °C 1006.4 hPa SSE 3.2 km/h 4.8 km/h 91% 0.0 mm 0 W/m2
07:37 1.6 °C 0.4 °C 1006.1 hPa Calm   3.2 km/h 92% 0.0 mm 0 W/m2
07:42 1.6 °C 0.4 °C 1006.1 hPa SE 1.4 km/h 3.2 km/h 92% 0.2 mm 0 W/m2
07:47 1.5 °C 0.3 °C 1006.1 hPa Calm   4.8 km/h 92% 0.2 mm 0 W/m2
07:52 1.4 °C 0.2 °C 1006.4 hPa Calm     92% 0.2 mm 0 W/m2
07:57 1.4 °C 0.2 °C 1006.1 hPa Calm     92% 0.2 mm 0 W/m2
08:02 1.3 °C 0.1 °C 1006.1 hPa Calm     92% 0.2 mm 0 W/m2
08:07 1.2 °C 0 °C 1006.1 hPa Calm   1.6 km/h 92% 0.2 mm 0 W/m2
08:12 1.2 °C 0.2 °C 1006.1 hPa Calm   1.6 km/h 93% 0.2 mm 0 W/m2
08:17 1.2 °C 0.2 °C 1006.1 hPa SE 1.4 km/h 4.8 km/h 93% 0.2 mm 0 W/m2
08:22 1.2 °C 0.2 °C 1006.1 hPa SE 3.2 km/h 4.8 km/h 93% 0.2 mm 0 W/m2
08:27 1.2 °C 0.2 °C 1006.1 hPa SE 1.4 km/h 3.2 km/h 93% 0.2 mm 0 W/m2
08:32 1.2 °C 0.2 °C 1006.1 hPa SE 1.4 km/h 1.6 km/h 93% 0.2 mm 5 W/m2
08:37 1.2 °C 0.3 °C 1005.8 hPa Calm     94% 0.2 mm 7 W/m2
08:42 1.2 °C 0.3 °C 1005.8 hPa Calm   1.6 km/h 94% 0.0 mm 9 W/m2
08:47 1.2 °C 0.3 °C 1005.8 hPa Calm     94% 0.0 mm 12 W/m2
08:52 1.2 °C 0.3 °C 1005.8 hPa Calm   1.6 km/h 94% 0.0 mm 14 W/m2
08:57 1.3 °C 0.4 °C 1005.8 hPa Calm   3.2 km/h 94% 0.0 mm 16 W/m2
09:02 1.3 °C 0.4 °C 1005.8 hPa Calm     94% 0.0 mm 21 W/m2
09:07 1.4 °C 0.5 °C 1005.8 hPa SE 3.2 km/h 3.2 km/h 94% 0.0 mm 32 W/m2
09:12 1.6 °C 0.7 °C 1005.8 hPa ESE 3.2 km/h 4.8 km/h 94% 0.0 mm 49 W/m2
09:17 1.8 °C 0.9 °C 1005.8 hPa SE 3.2 km/h 4.8 km/h 94% 0.0 mm 49 W/m2
09:22 2 °C 1.1 °C 1005.8 hPa ENE 6.4 km/h 6.4 km/h 94% 0.0 mm 47 W/m2
09:27 2.2 °C 1.2 °C 1005.8 hPa Calm   4.8 km/h 93% 0.0 mm 47 W/m2
09:32 2.3 °C 1.3 °C 1005.8 hPa ESE 1.4 km/h 6.4 km/h 93% 0.0 mm 53 W/m2
09:37 2.4 °C 1.4 °C 1005.8 hPa Calm     93% 0.0 mm 58 W/m2
09:42 2.5 °C 1.5 °C 1005.8 hPa Calm     93% 0.0 mm 54 W/m2
09:47 2.6 °C 1.6 °C 1005.8 hPa Calm     93% 0.0 mm 53 W/m2
09:52 2.6 °C 1.6 °C 1005.8 hPa Calm     93% 0.0 mm 49 W/m2
09:57 2.6 °C 1.6 °C 1005.8 hPa Calm     93% 0.0 mm 53 W/m2
10:02 2.7 °C 1.7 °C 1005.4 hPa Calm   3.2 km/h 93% 0.0 mm 53 W/m2
10:07 2.8 °C 1.8 °C 1005.4 hPa Calm   3.2 km/h 93% 0.0 mm 62 W/m2
10:12 2.8 °C 1.8 °C 1005.4 hPa SE 3.2 km/h 3.2 km/h 93% 0.0 mm 74 W/m2
10:17 3 °C 2 °C 1005.4 hPa Calm   3.2 km/h 93% 0.0 mm 76 W/m2
10:22 3.1 °C 2.1 °C 1005.4 hPa Calm   1.6 km/h 93% 0.0 mm 76 W/m2
10:27 3.2 °C 2.2 °C 1005.1 hPa SE 1.4 km/h 4.8 km/h 93% 0.0 mm 83 W/m2
10:32 3.4 °C 2.4 °C 1005.1 hPa ENE 4.7 km/h 6.4 km/h 93% 0.0 mm 90 W/m2
10:37 3.8 °C 2.6 °C 1005.1 hPa East 3.2 km/h 4.8 km/h 92% 0.0 mm 93 W/m2
10:43 4.1 °C 2.8 °C 1005.1 hPa East 4.7 km/h 4.8 km/h 91% 0.0 mm 107 W/m2
10:48 4.3 °C 2.8 °C 1005.1 hPa East 1.4 km/h 6.4 km/h 90% 0.0 mm 116 W/m2
10:53 4.4 °C 2.9 °C 1005.1 hPa East 1.4 km/h 3.2 km/h 90% 0.0 mm 102 W/m2
10:58 4.5 °C 3 °C 1005.1 hPa Calm   6.4 km/h 90% 0.0 mm 105 W/m2
11:03 4.6 °C 3.1 °C 1005.1 hPa Calm     90% 0.0 mm 109 W/m2
11:08 4.7 °C 3.2 °C 1005.1 hPa Calm   3.2 km/h 90% 0.0 mm 130 W/m2
11:13 4.8 °C 3.3 °C 1004.7 hPa East 1.4 km/h 8 km/h 90% 0.0 mm 186 W/m2
11:18 5.1 °C 3.6 °C 1004.7 hPa Calm   6.4 km/h 90% 0.0 mm 193 W/m2
11:23 5.6 °C 3.8 °C 1004.7 hPa North 1.4 km/h 3.2 km/h 88% 0.0 mm 165 W/m2
11:28 5.9 °C 3.9 °C 1004.7 hPa NW 3.2 km/h 6.4 km/h 87% 0.0 mm 142 W/m2
11:33 6.3 °C 4.1 °C 1004.4 hPa ESE 1.4 km/h 4.8 km/h 86% 0.0 mm 135 W/m2
11:38 6.8 °C 4.3 °C 1004.4 hPa NE 4.7 km/h 6.4 km/h 84% 0.0 mm 135 W/m2
11:43 7.1 °C 4.2 °C 1004.4 hPa ENE 6.4 km/h 8 km/h 82% 0.0 mm 149 W/m2
11:48 7.4 °C 4.4 °C 1004.1 hPa Calm   3.2 km/h 81% 0.0 mm 171 W/m2
11:53 7.6 °C 4.4 °C 1004.1 hPa NE 1.4 km/h 9.7 km/h 80% 0.0 mm 160 W/m2
11:58 7.7 °C 4.5 °C 1004.1 hPa NNE 6.4 km/h 8 km/h 80% 0.0 mm 121 W/m2
12:03 7.8 °C 4.4 °C 1004.1 hPa NE 3.2 km/h 9.7 km/h 79% 0.0 mm 135 W/m2
12:08 7.9 °C 4.5 °C 1003.7 hPa ENE 6.4 km/h 6.4 km/h 79% 0.0 mm 163 W/m2
12:13 8.1 °C 4.7 °C 1003.7 hPa ENE 3.2 km/h 4.8 km/h 79% 0.0 mm 169 W/m2
12:18 8.2 °C 4.8 °C 1003.7 hPa East 3.2 km/h 6.4 km/h 79% 0.0 mm 171 W/m2
12:23 8.3 °C 4.9 °C 1003.4 hPa NE 1.4 km/h 4.8 km/h 79% 0.0 mm 165 W/m2
12:28 8.4 °C 5 °C 1003.4 hPa ENE 3.2 km/h 4.8 km/h 79% 0.0 mm 149 W/m2
12:33 8.5 °C 5.1 °C 1003.4 hPa North 4.7 km/h 4.8 km/h 79% 0.0 mm 142 W/m2
12:38 8.7 °C 5.1 °C 1003.4 hPa ENE 3.2 km/h 6.4 km/h 78% 0.0 mm 134 W/m2
12:43 8.8 °C 5.2 °C 1003.0 hPa ESE 13 km/h 12.9 km/h 78% 0.0 mm 128 W/m2
12:48 8.9 °C 5.3 °C 1003.0 hPa SE 6.4 km/h 8 km/h 78% 0.0 mm 128 W/m2
12:53 9.1 °C 5.3 °C 1003.0 hPa NE 6.4 km/h 11.3 km/h 77% 0.0 mm 128 W/m2
12:58 9.2 °C 5.2 °C 1003.0 hPa North 6.4 km/h 6.4 km/h 76% 0.0 mm 120 W/m2
13:03 9.2 °C 5.4 °C 1002.7 hPa NE 4.7 km/h 6.4 km/h 77% 0.0 mm 100 W/m2
13:08 9.3 °C 5.3 °C 1002.7 hPa NNE 1.4 km/h 6.4 km/h 76% 0.0 mm 113 W/m2
13:13 9.3 °C 5.5 °C 1002.4 hPa ENE 7.9 km/h 8 km/h 77% 0.0 mm 121 W/m2
13:18 9.4 °C 5.4 °C 1002.4 hPa NNE 4.7 km/h 6.4 km/h 76% 0.0 mm 137 W/m2
13:23 9.5 °C 5.7 °C 1002.0 hPa NNW 13 km/h 12.9 km/h 77% 0.0 mm 118 W/m2
13:28 9.6 °C 5.6 °C 1002.4 hPa NW 3.2 km/h 6.4 km/h 76% 0.0 mm 95 W/m2
13:33 9.6 °C 5.6 °C 1002.0 hPa North 3.2 km/h 6.4 km/h 76% 0.0 mm 91 W/m2
13:38 9.7 °C 5.7 °C 1002.0 hPa ENE 11.1 km/h 11.3 km/h 76% 0.0 mm 91 W/m2
13:43 9.7 °C 5.5 °C 1002.0 hPa North 4.7 km/h 11.3 km/h 75% 0.0 mm 76 W/m2
13:48 9.7 °C 5.7 °C 1001.7 hPa NE 9.7 km/h 9.7 km/h 76% 0.0 mm 56 W/m2
13:53 9.8 °C 5.6 °C 1001.7 hPa NNW 4.7 km/h 8 km/h 75% 0.0 mm 54 W/m2
13:58 9.8 °C 5.8 °C 1001.7 hPa North 4.7 km/h 4.8 km/h 76% 0.0 mm 51 W/m2
14:03 9.9 °C 5.7 °C 1001.4 hPa Calm   9.7 km/h 75% 0.0 mm 44 W/m2
14:08 10.1 °C 5.9 °C 1001.4 hPa ENE 7.9 km/h 12.9 km/h 75% 0.0 mm 42 W/m2
14:13 10.2 °C 6 °C 1001.4 hPa Calm   6.4 km/h 75% 0.0 mm 58 W/m2
14:18 10.2 °C 6 °C 1001.4 hPa NE 1.4 km/h 11.3 km/h 75% 0.0 mm 77 W/m2
14:23 10.3 °C 6.1 °C 1001.4 hPa NNE 3.2 km/h 6.4 km/h 75% 0.0 mm 105 W/m2
14:28 10.2 °C 6 °C 1001.4 hPa WNW 6.4 km/h 14.5 km/h 75% 0.0 mm 125 W/m2
14:33 10.2 °C 6 °C 1001.0 hPa WNW 4.7 km/h 9.7 km/h 75% 0.0 mm 125 W/m2
14:38 10.2 °C 6 °C 1001.0 hPa WNW 1.4 km/h 6.4 km/h 75% 0.0 mm 151 W/m2
14:43 10.3 °C 6.1 °C 1001.4 hPa NE 4.7 km/h 8 km/h 75% 0.0 mm 148 W/m2
14:48 10.3 °C 6.1 °C 1001.0 hPa NNE 1.4 km/h 6.4 km/h 75% 0.0 mm 127 W/m2
14:53 10.4 °C 6.2 °C 1001.0 hPa North 4.7 km/h 8 km/h 75% 0.0 mm 104 W/m2
14:58 10.4 °C 6.2 °C 1001.0 hPa NW 4.7 km/h 6.4 km/h 75% 0.0 mm 88 W/m2
15:03 10.4 °C 6.2 °C 1000.7 hPa North 4.7 km/h 9.7 km/h 75% 0.0 mm 95 W/m2
15:08 10.4 °C 6.2 °C 1001.0 hPa Calm   4.8 km/h 75% 0.0 mm 90 W/m2
15:13 10.4 °C 6.2 °C 1001.0 hPa WNW 3.2 km/h 11.3 km/h 75% 0.0 mm 84 W/m2
15:18 10.4 °C 6.2 °C 1001.0 hPa NW 3.2 km/h 6.4 km/h 75% 0.0 mm 83 W/m2
15:23 10.4 °C 6.2 °C 1001.0 hPa North 1.4 km/h 6.4 km/h 75% 0.0 mm 84 W/m2
15:28 10.4 °C 6.2 °C 1000.7 hPa NW 4.7 km/h 8 km/h 75% 0.0 mm 88 W/m2
15:33 10.4 °C 6.2 °C 1000.7 hPa NW 6.4 km/h 6.4 km/h 75% 0.0 mm 70 W/m2
15:39 10.4 °C 6.2 °C 1000.7 hPa NE 1.4 km/h 3.2 km/h 75% 0.0 mm 54 W/m2
15:44 10.3 °C 6.3 °C 1000.7 hPa NW 6.4 km/h 14.5 km/h 76% 0.0 mm 42 W/m2
15:49 10.3 °C 6.3 °C 1000.7 hPa NNE 1.4 km/h 6.4 km/h 76% 0.0 mm 40 W/m2
15:54 10.3 °C 6.3 °C 1000.7 hPa WNW 3.2 km/h 3.2 km/h 76% 0.0 mm 46 W/m2
15:59 10.2 °C 6.2 °C 1000.7 hPa Calm   4.8 km/h 76% 0.0 mm 44 W/m2
16:04 10.2 °C 6.2 °C 1000.3 hPa NNW 3.2 km/h 8 km/h 76% 0.0 mm 47 W/m2
16:09 10.1 °C 6.1 °C 1000.3 hPa Calm   6.4 km/h 76% 0.0 mm 46 W/m2
16:14 10.1 °C 6.1 °C 1000.3 hPa ENE 1.4 km/h 9.7 km/h 76% 0.0 mm 46 W/m2
16:19 10.1 °C 6.1 °C 1000.3 hPa NNW 6.4 km/h 8 km/h 76% 0.0 mm 42 W/m2
16:24 10.1 °C 6.1 °C 1000.3 hPa ENE 4.7 km/h 9.7 km/h 76% 0.0 mm 39 W/m2
16:29 10.2 °C 6 °C 1000.3 hPa NNE 6.4 km/h 6.4 km/h 75% 0.0 mm 32 W/m2
16:34 10.2 °C 6 °C 1000.3 hPa NNW 4.7 km/h 9.7 km/h 75% 0.0 mm 26 W/m2
16:39 10.2 °C 6 °C 1000.0 hPa NNE 1.4 km/h 8 km/h 75% 0.0 mm 18 W/m2
16:44 10.1 °C 5.9 °C 1000.0 hPa NNW 3.2 km/h 9.7 km/h 75% 0.0 mm 12 W/m2
16:49 10.1 °C 5.9 °C 1000.0 hPa NE 3.2 km/h 8 km/h 75% 0.0 mm 11 W/m2
16:54 10.1 °C 5.9 °C 1000.0 hPa NE 6.4 km/h 8 km/h 75% 0.0 mm 7 W/m2
16:59 10 °C 5.8 °C 1000.0 hPa SW 1.4 km/h 8 km/h 75% 0.0 mm 7 W/m2
17:04 9.9 °C 5.7 °C 1000.0 hPa North 3.2 km/h 4.8 km/h 75% 0.0 mm 5 W/m2
17:09 9.8 °C 5.6 °C 1000.0 hPa NNE 1.4 km/h 6.4 km/h 75% 0.0 mm 0 W/m2
17:14 9.8 °C 5.8 °C 1000.0 hPa NE 1.4 km/h 6.4 km/h 76% 0.0 mm 0 W/m2
17:19 9.8 °C 5.8 °C 999.7 hPa North 1.4 km/h 8 km/h 76% 0.0 mm 0 W/m2
17:24 9.8 °C 5.8 °C 999.7 hPa Calm   4.8 km/h 76% 0.0 mm 0 W/m2
17:29 9.7 °C 5.7 °C 999.7 hPa NE 6.4 km/h 16.1 km/h 76% 0.0 mm 0 W/m2
17:34 9.8 °C 5.8 °C 999.7 hPa NNE 4.7 km/h 8 km/h 76% 0.0 mm 0 W/m2
17:39 9.9 °C 5.7 °C 999.7 hPa ENE 1.4 km/h 16.1 km/h 75% 0.0 mm 0 W/m2
17:44 9.8 °C 5.8 °C 999.7 hPa NNW 3.2 km/h 6.4 km/h 76% 0.0 mm 0 W/m2
17:49 9.8 °C 5.8 °C 999.7 hPa East 3.2 km/h 9.7 km/h 76% 0.0 mm 0 W/m2
17:54 10.1 °C 5.9 °C 999.7 hPa North 3.2 km/h 11.3 km/h 75% 0.0 mm 0 W/m2
17:59 10.1 °C 5.9 °C 999.7 hPa ENE 1.4 km/h 6.4 km/h 75% 0.0 mm 0 W/m2
18:04 10 °C 5.8 °C 999.7 hPa NNE 1.4 km/h 11.3 km/h 75% 0.0 mm 0 W/m2
18:09 10 °C 5.8 °C 999.7 hPa East 1.4 km/h 8 km/h 75% 0.0 mm 0 W/m2
18:14 10 °C 5.8 °C 999.7 hPa East 1.4 km/h 6.4 km/h 75% 0.0 mm 0 W/m2
18:19 9.9 °C 5.7 °C 999.7 hPa NE 1.4 km/h 12.9 km/h 75% 0.0 mm 0 W/m2
18:24 10 °C 5.6 °C 999.3 hPa ESE 4.7 km/h 6.4 km/h 74% 0.0 mm 0 W/m2
18:29 10.1 °C 5.7 °C 999.7 hPa North 6.4 km/h 8 km/h 74% 0.0 mm 0 W/m2
18:34 10.1 °C 5.7 °C 999.7 hPa NE 3.2 km/h 3.2 km/h 74% 0.0 mm 0 W/m2
18:39 10 °C 5.6 °C 999.3 hPa NW 1.4 km/h 6.4 km/h 74% 0.0 mm 0 W/m2
18:44 9.9 °C 5.5 °C 999.7 hPa North 13 km/h 12.9 km/h 74% 0.0 mm 0 W/m2
18:49 10 °C 5.6 °C 999.3 hPa NNW 3.2 km/h 11.3 km/h 74% 0.0 mm 0 W/m2
18:54 10.1 °C 5.7 °C 999.3 hPa East 6.4 km/h 8 km/h 74% 0.0 mm 0 W/m2
18:59 10 °C 5.6 °C 999.3 hPa NNE 3.2 km/h 11.3 km/h 74% 0.0 mm 0 W/m2
19:04 9.9 °C 5.5 °C 999.3 hPa ENE 1.4 km/h 9.7 km/h 74% 0.0 mm 0 W/m2
19:09 9.9 °C 5.7 °C 999.3 hPa North 1.4 km/h 9.7 km/h 75% 0.0 mm 0 W/m2
19:14 9.8 °C 5.6 °C 999.3 hPa ENE 4.7 km/h 8 km/h 75% 0.0 mm 0 W/m2
19:19 9.8 °C 5.6 °C 999.0 hPa NE 3.2 km/h 11.3 km/h 75% 0.0 mm 0 W/m2
19:24 9.9 °C 5.5 °C 999.0 hPa SSE 1.4 km/h 4.8 km/h 74% 0.0 mm 0 W/m2
19:30 9.8 °C 5.6 °C 999.0 hPa East 1.4 km/h 4.8 km/h 75% 0.0 mm 0 W/m2
19:35 9.7 °C 5.5 °C 999.0 hPa ESE 4.7 km/h 6.4 km/h 75% 0.0 mm 0 W/m2
19:40 9.7 °C 5.5 °C 999.0 hPa ENE 1.4 km/h 11.3 km/h 75% 0.0 mm 0 W/m2
19:45 9.7 °C 5.5 °C 998.6 hPa East 9.7 km/h 11.3 km/h 75% 0.0 mm 0 W/m2
19:50 9.7 °C 5.5 °C 999.0 hPa ENE 4.7 km/h 8 km/h 75% 0.0 mm 0 W/m2
19:55 9.7 °C 5.5 °C 999.0 hPa ENE 3.2 km/h 6.4 km/h 75% 0.0 mm 0 W/m2
20:00 9.7 °C 5.5 °C 999.0 hPa ENE 3.2 km/h 9.7 km/h 75% 0.0 mm 0 W/m2
20:05 9.7 °C 5.5 °C 998.6 hPa NNE 3.2 km/h 4.8 km/h 75% 0.0 mm 0 W/m2
20:10 9.8 °C 5.4 °C 998.6 hPa NE 4.7 km/h 8 km/h 74% 0.0 mm 0 W/m2
20:15 9.7 °C 5.5 °C 998.6 hPa NE 7.9 km/h 8 km/h 75% 0.0 mm 0 W/m2
20:20 9.7 °C 5.5 °C 998.6 hPa ENE 3.2 km/h 6.4 km/h 75% 0.0 mm 0 W/m2
20:25 9.8 °C 5.4 °C 998.3 hPa NE 3.2 km/h 9.7 km/h 74% 0.0 mm 0 W/m2
20:30 9.9 °C 5.5 °C 998.6 hPa North 3.2 km/h 9.7 km/h 74% 0.0 mm 0 W/m2
20:35 9.9 °C 5.5 °C 998.3 hPa North 1.4 km/h 6.4 km/h 74% 0.0 mm 0 W/m2
20:40 9.9 °C 5.5 °C 998.3 hPa NE 3.2 km/h 8 km/h 74% 0.0 mm 0 W/m2
20:45 9.9 °C 5.3 °C 998.3 hPa Calm   8 km/h 73% 0.0 mm 0 W/m2
20:50 10.1 °C 5.5 °C 998.3 hPa NE 6.4 km/h 8 km/h 73% 0.0 mm 0 W/m2
20:55 10.1 °C 5.5 °C 998.3 hPa NNW 3.2 km/h 6.4 km/h 73% 0.0 mm 0 W/m2
21:00 10.2 °C 5.6 °C 998.3 hPa ENE 3.2 km/h 8 km/h 73% 0.0 mm 0 W/m2
21:05 10.2 °C 5.6 °C 998.3 hPa ENE 4.7 km/h 12.9 km/h 73% 0.0 mm 0 W/m2
21:10 10.3 °C 5.5 °C 998.0 hPa NNW 4.7 km/h 6.4 km/h 72% 0.0 mm 0 W/m2
21:15 10.2 °C 5.6 °C 998.0 hPa NNE 3.2 km/h 14.5 km/h 73% 0.0 mm 0 W/m2
21:20 10.2 °C 5.4 °C 998.0 hPa WNW 6.4 km/h 8 km/h 72% 0.0 mm 0 W/m2
21:25 10.2 °C 5.4 °C 998.0 hPa ENE 6.4 km/h 14.5 km/h 72% 0.0 mm 0 W/m2
21:30 10.3 °C 5.5 °C 998.0 hPa NE 4.7 km/h 6.4 km/h 72% 0.0 mm 0 W/m2
21:35 10.3 °C 5.5 °C 998.0 hPa Calm   8 km/h 72% 0.0 mm 0 W/m2
21:40 10.3 °C 5.5 °C 998.0 hPa SE 7.9 km/h 19.3 km/h 72% 0.0 mm 0 W/m2
21:45 10.3 °C 5.5 °C 998.0 hPa NE 6.4 km/h 9.7 km/h 72% 0.0 mm 0 W/m2
21:50 10.3 °C 5.5 °C 998.0 hPa ENE 4.7 km/h 19.3 km/h 72% 0.0 mm 0 W/m2
21:55 10.4 °C 5.6 °C 998.0 hPa ENE 4.7 km/h 9.7 km/h 72% 0.0 mm 0 W/m2
22:00 10.4 °C 5.4 °C 998.0 hPa NE 7.9 km/h 8 km/h 71% 0.0 mm 0 W/m2
22:05 10.5 °C 5.5 °C 998.0 hPa NE 6.4 km/h 24.1 km/h 71% 0.0 mm 0 W/m2
22:10 10.5 °C 5.5 °C 998.0 hPa NNW 6.4 km/h 11.3 km/h 71% 0.0 mm 0 W/m2
22:15 10.4 °C 5.4 °C 997.6 hPa NE 6.4 km/h 24.1 km/h 71% 0.0 mm 0 W/m2
22:20 10.5 °C 5.5 °C 997.6 hPa NNE 3.2 km/h 17.7 km/h 71% 0.0 mm 0 W/m2
22:25 10.6 °C 5.4 °C 997.6 hPa NNW 4.7 km/h 16.1 km/h 70% 0.0 mm 0 W/m2
22:30 10.6 °C 5.6 °C 997.6 hPa NNE 1.4 km/h 17.7 km/h 71% 0.0 mm 0 W/m2
22:35 10.5 °C 5.5 °C 997.6 hPa Calm   8 km/h 71% 0.0 mm 0 W/m2
22:40 10.5 °C 5.5 °C 997.6 hPa ENE 4.7 km/h 6.4 km/h 71% 0.0 mm 0 W/m2
22:45 10.4 °C 5.4 °C 997.3 hPa North 4.7 km/h 16.1 km/h 71% 0.0 mm 0 W/m2
22:50 10.5 °C 5.5 °C 997.3 hPa ENE 6.4 km/h 12.9 km/h 71% 0.0 mm 0 W/m2
22:55 10.4 °C 5.4 °C 997.3 hPa ESE 11.1 km/h 11.3 km/h 71% 0.0 mm 0 W/m2
23:00 10.4 °C 5.4 °C 997.3 hPa ENE 4.7 km/h 8 km/h 71% 0.0 mm 0 W/m2
23:05 10.4 °C 5.4 °C 997.3 hPa ENE 4.7 km/h 8 km/h 71% 0.0 mm 0 W/m2
23:10 10.6 °C 5.4 °C 997.0 hPa North 3.2 km/h 14.5 km/h 70% 0.0 mm 0 W/m2
23:15 10.7 °C 5.5 °C 997.0 hPa NNW 4.7 km/h 6.4 km/h 70% 0.0 mm 0 W/m2
23:20 10.6 °C 5.4 °C 997.0 hPa NE 6.4 km/h 12.9 km/h 70% 0.0 mm 0 W/m2
23:25 10.7 °C 5.2 °C 997.0 hPa ENE 6.4 km/h 12.9 km/h 69% 0.0 mm 0 W/m2
23:30 10.7 °C 5.2 °C 997.0 hPa North 4.7 km/h 11.3 km/h 69% 0.0 mm 0 W/m2
23:35 10.7 °C 5.2 °C 997.0 hPa NW 4.7 km/h 8 km/h 69% 0.0 mm 0 W/m2
23:40 10.8 °C 5.1 °C 997.0 hPa North 6.4 km/h 11.3 km/h 68% 0.0 mm 0 W/m2
23:45 10.8 °C 5.1 °C 997.0 hPa SE 3.2 km/h 20.9 km/h 68% 0.0 mm 0 W/m2
23:50 10.9 °C 5.2 °C 997.0 hPa West 11.1 km/h 24.1 km/h 68% 0.0 mm 0 W/m2
23:55 10.9 °C 5.2 °C 997.0 hPa NW 7.9 km/h 8 km/h 68% 0.0 mm 0 W/m2
Juneau County Weather
Compliments of Weather Underground - 4 mb